sensor_id;sensor_type;location;lat;lon;timestamp;pressure;altitude;pressure_sealevel;temperature;humidity
6528;BME280;64597;42.664;23.256;2024-03-06T00:02:21;94342.22;;;6.06;69.81
6528;BME280;64597;42.664;23.256;2024-03-06T00:04:53;94343.44;;;6.03;69.89
6528;BME280;64597;42.664;23.256;2024-03-06T00:07:44;94342.22;;;6.06;69.90
6528;BME280;64597;42.664;23.256;2024-03-06T00:11:05;94349.25;;;6.05;69.98
6528;BME280;64597;42.664;23.256;2024-03-06T00:13:40;94351.13;;;5.98;69.96
6528;BME280;64597;42.664;23.256;2024-03-06T00:16:19;94346.72;;;5.99;70.02
6528;BME280;64597;42.664;23.256;2024-03-06T00:18:56;94339.25;;;5.96;70.11
6528;BME280;64597;42.664;23.256;2024-03-06T00:21:33;94329.25;;;5.93;70.34
6528;BME280;64597;42.664;23.256;2024-03-06T00:24:17;94350.16;;;5.93;69.72
6528;BME280;64597;42.664;23.256;2024-03-06T00:26:48;94344.75;;;5.88;69.64
6528;BME280;64597;42.664;23.256;2024-03-06T00:29:25;94349.59;;;5.77;69.87
6528;BME280;64597;42.664;23.256;2024-03-06T00:32:00;94344.44;;;5.64;69.89
6528;BME280;64597;42.664;23.256;2024-03-06T00:34:34;94346.31;;;5.57;70.31
6528;BME280;64597;42.664;23.256;2024-03-06T00:37:11;94341.47;;;5.54;70.43
6528;BME280;64597;42.664;23.256;2024-03-06T00:39:43;94343.16;;;5.42;70.94
6528;BME280;64597;42.664;23.256;2024-03-06T00:42:17;94340.41;;;5.24;71.02
6528;BME280;64597;42.664;23.256;2024-03-06T00:44:56;94337.41;;;5.27;71.02
6528;BME280;64597;42.664;23.256;2024-03-06T00:47:52;94337.41;;;5.27;71.63
6528;BME280;64597;42.664;23.256;2024-03-06T00:52:52;94341.38;;;5.36;71.62
6528;BME280;64597;42.664;23.256;2024-03-06T00:58:05;94345.19;;;5.34;71.61
6528;BME280;64597;42.664;23.256;2024-03-06T01:00:42;94346.97;;;5.40;71.48
6528;BME280;64597;42.664;23.256;2024-03-06T01:03:25;94349.41;;;5.41;71.56
6528;BME280;64597;42.664;23.256;2024-03-06T01:05:53;94353.84;;;5.34;71.59
6528;BME280;64597;42.664;23.256;2024-03-06T01:08:25;94347.03;;;5.33;71.75
6528;BME280;64597;42.664;23.256;2024-03-06T01:10:57;94353.44;;;5.37;71.52
6528;BME280;64597;42.664;23.256;2024-03-06T01:13:32;94366.78;;;5.10;71.61
6528;BME280;64597;42.664;23.256;2024-03-06T01:16:07;94345.84;;;5.29;72.02
6528;BME280;64597;42.664;23.256;2024-03-06T01:18:43;94354.28;;;5.31;72.04
6528;BME280;64597;42.664;23.256;2024-03-06T01:21:20;94343.63;;;5.20;72.04
6528;BME280;64597;42.664;23.256;2024-03-06T01:23:56;94339.44;;;5.19;72.38
6528;BME280;64597;42.664;23.256;2024-03-06T01:26:35;94333.41;;;5.18;72.41
6528;BME280;64597;42.664;23.256;2024-03-06T01:29:10;94335.03;;;5.19;72.16
6528;BME280;64597;42.664;23.256;2024-03-06T01:31:48;94337.19;;;5.22;72.02
6528;BME280;64597;42.664;23.256;2024-03-06T01:34:20;94325.56;;;5.18;72.41
6528;BME280;64597;42.664;23.256;2024-03-06T01:37:10;94339.66;;;5.17;73.03
6528;BME280;64597;42.664;23.256;2024-03-06T01:39:48;94337.78;;;5.24;73.32
6528;BME280;64597;42.664;23.256;2024-03-06T01:42:29;94338.22;;;5.21;72.48
6528;BME280;64597;42.664;23.256;2024-03-06T01:45:07;94332.44;;;5.13;72.77
6528;BME280;64597;42.664;23.256;2024-03-06T01:47:38;94330.22;;;5.10;72.85
6528;BME280;64597;42.664;23.256;2024-03-06T01:50:09;94336.47;;;5.09;72.33
6528;BME280;64597;42.664;23.256;2024-03-06T01:52:49;94335.81;;;5.13;72.19
6528;BME280;64597;42.664;23.256;2024-03-06T02:37:40;94373.66;;;4.91;72.59
6528;BME280;64597;42.664;23.256;2024-03-06T02:40:23;94375.28;;;4.92;72.62
6528;BME280;64597;42.664;23.256;2024-03-06T02:42:56;94374.47;;;4.85;72.17
6528;BME280;64597;42.664;23.256;2024-03-06T02:45:38;94376.50;;;4.83;71.80
6528;BME280;64597;42.664;23.256;2024-03-06T02:48:22;94373.88;;;4.83;72.28
6528;BME280;64597;42.664;23.256;2024-03-06T02:51:22;94366.84;;;4.77;71.72
6528;BME280;64597;42.664;23.256;2024-03-06T02:53:57;94376.31;;;4.78;71.68
6528;BME280;64597;42.664;23.256;2024-03-06T02:56:35;94372.91;;;4.71;71.30
6528;BME280;64597;42.664;23.256;2024-03-06T02:59:21;94374.91;;;4.62;71.71
6528;BME280;64597;42.664;23.256;2024-03-06T03:02:17;94376.13;;;4.53;72.50
6528;BME280;64597;42.664;23.256;2024-03-06T03:04:51;94370.72;;;4.55;72.34
6528;BME280;64597;42.664;23.256;2024-03-06T03:07:24;94375.31;;;4.59;72.01
6528;BME280;64597;42.664;23.256;2024-03-06T03:10:05;94377.34;;;4.64;71.95
6528;BME280;64597;42.664;23.256;2024-03-06T03:12:44;94380.53;;;4.59;72.13
6528;BME280;64597;42.664;23.256;2024-03-06T03:15:19;94380.94;;;4.56;71.94
6528;BME280;64597;42.664;23.256;2024-03-06T03:17:57;94376.13;;;4.60;71.88
6528;BME280;64597;42.664;23.256;2024-03-06T03:20:36;94383.38;;;4.58;71.58
6528;BME280;64597;42.664;23.256;2024-03-06T03:23:08;94375.31;;;4.40;71.90
6528;BME280;64597;42.664;23.256;2024-03-06T03:25:44;94385.75;;;4.46;71.78
6528;BME280;64597;42.664;23.256;2024-03-06T03:28:31;94323.34;;;4.05;72.15
6528;BME280;64597;42.664;23.256;2024-03-06T03:31:15;94394.63;;;4.45;71.89
6528;BME280;64597;42.664;23.256;2024-03-06T03:33:54;94391.19;;;4.45;72.75
6528;BME280;64597;42.664;23.256;2024-03-06T03:36:35;94380.16;;;4.43;71.93
6528;BME280;64597;42.664;23.256;2024-03-06T03:39:18;94380.16;;;4.43;72.32
6528;BME280;64597;42.664;23.256;2024-03-06T03:41:52;94391.56;;;4.42;71.79
6528;BME280;64597;42.664;23.256;2024-03-06T03:44:28;94389.38;;;4.39;72.24
6528;BME280;64597;42.664;23.256;2024-03-06T03:47:07;94390.78;;;4.35;72.62
6528;BME280;64597;42.664;23.256;2024-03-06T03:49:40;94389.78;;;4.36;72.39
6528;BME280;64597;42.664;23.256;2024-03-06T03:52:15;94389.38;;;4.39;72.52
6528;BME280;64597;42.664;23.256;2024-03-06T03:54:45;94372.72;;;4.33;73.04
6528;BME280;64597;42.664;23.256;2024-03-06T03:57:10;94387.19;;;4.49;72.59
6528;BME280;64597;42.664;23.256;2024-03-06T03:59:38;94387.97;;;4.43;72.13
6528;BME280;64597;42.664;23.256;2024-03-06T04:02:03;94398.22;;;4.51;72.81
6528;BME280;64597;42.664;23.256;2024-03-06T04:04:29;94398.22;;;4.51;72.73
6528;BME280;64597;42.664;23.256;2024-03-06T04:06:54;94399.41;;;4.48;73.12
6528;BME280;64597;42.664;23.256;2024-03-06T04:09:20;94401.41;;;4.40;72.99
6528;BME280;64597;42.664;23.256;2024-03-06T04:11:45;94399.22;;;4.37;73.30
6528;BME280;64597;42.664;23.256;2024-03-06T04:14:11;94409.44;;;4.38;72.88
6528;BME280;64597;42.664;23.256;2024-03-06T04:16:36;94416.09;;;4.41;72.57
6528;BME280;64597;42.664;23.256;2024-03-06T04:19:03;94414.66;;;4.38;72.74
6528;BME280;64597;42.664;23.256;2024-03-06T04:21:29;94416.47;;;4.38;72.76
6528;BME280;64597;42.664;23.256;2024-03-06T04:23:54;94425.31;;;4.43;73.32
6528;BME280;64597;42.664;23.256;2024-03-06T04:26:20;94421.09;;;4.49;72.76
6528;BME280;64597;42.664;23.256;2024-03-06T04:28:45;94439.16;;;4.44;72.91
6528;BME280;64597;42.664;23.256;2024-03-06T04:31:11;94422.50;;;4.38;72.23
6528;BME280;64597;42.664;23.256;2024-03-06T04:33:36;94429.13;;;4.41;73.16
6528;BME280;64597;42.664;23.256;2024-03-06T04:36:05;94420.50;;;4.40;72.46
6528;BME280;64597;42.664;23.256;2024-03-06T04:38:31;94423.91;;;4.41;72.18
6528;BME280;64597;42.664;23.256;2024-03-06T04:40:56;94392.16;;;4.17;72.70
6528;BME280;64597;42.664;23.256;2024-03-06T04:43:22;94425.50;;;4.42;71.87
6528;BME280;64597;42.664;23.256;2024-03-06T04:45:47;94435.56;;;4.45;72.09
6528;BME280;64597;42.664;23.256;2024-03-06T04:48:12;94431.53;;;4.49;71.74
6528;BME280;64597;42.664;23.256;2024-03-06T04:50:38;94443.59;;;4.56;72.31
6528;BME280;64597;42.664;23.256;2024-03-06T04:53:03;94412.28;;;4.37;72.60
6528;BME280;64597;42.664;23.256;2024-03-06T04:55:29;94446.03;;;4.58;72.29
6528;BME280;64597;42.664;23.256;2024-03-06T04:57:56;94449.22;;;4.60;72.05
6528;BME280;64597;42.664;23.256;2024-03-06T05:00:21;94445.59;;;4.61;71.71
6528;BME280;64597;42.664;23.256;2024-03-06T05:02:47;94440.19;;;4.56;71.60
6528;BME280;64597;42.664;23.256;2024-03-06T05:05:14;94431.53;;;4.49;71.84
6528;BME280;64597;42.664;23.256;2024-03-06T05:07:40;94443.78;;;4.55;72.01
6528;BME280;64597;42.664;23.256;2024-03-06T05:10:09;94438.59;;;4.61;72.14
6528;BME280;64597;42.664;23.256;2024-03-06T05:12:35;94437.78;;;4.61;72.16
6528;BME280;64597;42.664;23.256;2024-03-06T05:15:10;94447.22;;;4.75;71.88
6528;BME280;64597;42.664;23.256;2024-03-06T05:17:44;94448.41;;;4.79;72.75
6528;BME280;64597;42.664;23.256;2024-03-06T05:20:32;94436.75;;;4.75;72.10
6528;BME280;64597;42.664;23.256;2024-03-06T05:22:59;94448.41;;;4.92;71.82
6528;BME280;64597;42.664;23.256;2024-03-06T05:25:30;94456.44;;;4.97;71.95
6528;BME280;64597;42.664;23.256;2024-03-06T05:28:04;94460.66;;;5.05;72.16
6528;BME280;64597;42.664;23.256;2024-03-06T05:30:44;94461.25;;;5.07;72.07
6528;BME280;64597;42.664;23.256;2024-03-06T05:33:12;94462.84;;;5.14;72.35
6528;BME280;64597;42.664;23.256;2024-03-06T05:48:50;94471.22;;;5.55;72.84
6528;BME280;64597;42.664;23.256;2024-03-06T05:51:23;94463.97;;;5.57;72.75
6528;BME280;64597;42.664;23.256;2024-03-06T05:54:08;94468.75;;;5.67;72.29
6528;BME280;64597;42.664;23.256;2024-03-06T05:57:04;94404.28;;;5.41;71.86
6528;BME280;64597;42.664;23.256;2024-03-06T05:59:48;94476.34;;;5.81;71.57
6528;BME280;64597;42.664;23.256;2024-03-06T06:02:18;94476.38;;;5.88;71.73
6528;BME280;64597;42.664;23.256;2024-03-06T06:04:48;94476.34;;;5.95;71.95
6528;BME280;64597;42.664;23.256;2024-03-06T06:07:14;94475.88;;;6.04;71.90
6528;BME280;64597;42.664;23.256;2024-03-06T06:09:41;94483.53;;;6.06;71.47
6528;BME280;64597;42.664;23.256;2024-03-06T06:12:06;94467.31;;;5.91;71.22
6528;BME280;64597;42.664;23.256;2024-03-06T06:14:31;94476.47;;;6.13;71.77
6528;BME280;64597;42.664;23.256;2024-03-06T06:16:57;94484.81;;;6.28;71.30
6528;BME280;64597;42.664;23.256;2024-03-06T06:19:22;94488.03;;;6.30;71.25
6528;BME280;64597;42.664;23.256;2024-03-06T06:21:48;94485.59;;;6.35;71.10
6528;BME280;64597;42.664;23.256;2024-03-06T06:24:13;94488.59;;;6.38;70.61
6528;BME280;64597;42.664;23.256;2024-03-06T06:26:39;94475.81;;;6.55;70.77
6528;BME280;64597;42.664;23.256;2024-03-06T06:29:05;94469.13;;;6.59;70.44
6528;BME280;64597;42.664;23.256;2024-03-06T06:31:30;94481.56;;;6.70;70.20
6528;BME280;64597;42.664;23.256;2024-03-06T06:33:56;94471.81;;;6.77;70.02
6528;BME280;64597;42.664;23.256;2024-03-06T06:36:22;94451.66;;;7.02;69.48
6528;BME280;64597;42.664;23.256;2024-03-06T06:38:48;94468.09;;;7.34;69.42
6528;BME280;64597;42.664;23.256;2024-03-06T06:41:14;94464.69;;;7.52;68.73
6528;BME280;64597;42.664;23.256;2024-03-06T06:43:41;94464.88;;;7.75;68.67
6528;BME280;64597;42.664;23.256;2024-03-06T06:46:07;94442.25;;;7.92;67.60
6528;BME280;64597;42.664;23.256;2024-03-06T06:48:32;94469.25;;;9.57;91.02
6528;BME280;64597;42.664;23.256;2024-03-06T06:50:59;94463.69;;;12.32;94.49
6528;BME280;64597;42.664;23.256;2024-03-06T06:53:26;94460.06;;;13.97;83.75
6528;BME280;64597;42.664;23.256;2024-03-06T06:55:51;94458.06;;;15.11;63.99
6528;BME280;64597;42.664;23.256;2024-03-06T06:58:17;94447.16;;;15.88;54.88
6528;BME280;64597;42.664;23.256;2024-03-06T07:00:42;94456.41;;;16.75;52.04
6528;BME280;64597;42.664;23.256;2024-03-06T07:03:08;94458.09;;;17.43;47.47
6528;BME280;64597;42.664;23.256;2024-03-06T07:05:33;94464.84;;;17.98;45.45
6528;BME280;64597;42.664;23.256;2024-03-06T07:07:59;94453.19;;;17.89;42.12
6528;BME280;64597;42.664;23.256;2024-03-06T07:10:24;94463.78;;;16.93;41.84
6528;BME280;64597;42.664;23.256;2024-03-06T07:12:50;94467.56;;;16.08;42.20
6528;BME280;64597;42.664;23.256;2024-03-06T07:15:15;94463.44;;;15.51;43.11
6528;BME280;64597;42.664;23.256;2024-03-06T07:17:41;94474.00;;;15.11;44.30
6528;BME280;64597;42.664;23.256;2024-03-06T07:20:07;94456.94;;;14.67;44.57
6528;BME280;64597;42.664;23.256;2024-03-06T07:22:34;94470.94;;;14.52;45.18
6528;BME280;64597;42.664;23.256;2024-03-06T07:25:00;94473.09;;;14.55;45.56
6528;BME280;64597;42.664;23.256;2024-03-06T07:27:27;94478.63;;;14.49;45.67
6528;BME280;64597;42.664;23.256;2024-03-06T07:29:53;94470.44;;;14.55;45.91
6528;BME280;64597;42.664;23.256;2024-03-06T07:32:19;94450.72;;;14.41;46.26
6528;BME280;64597;42.664;23.256;2024-03-06T07:34:44;94472.81;;;14.57;46.30
6528;BME280;64597;42.664;23.256;2024-03-06T07:37:10;94480.00;;;14.61;46.05
6528;BME280;64597;42.664;23.256;2024-03-06T07:39:35;94469.13;;;14.63;45.97
6528;BME280;64597;42.664;23.256;2024-03-06T07:42:00;94464.34;;;14.65;45.95
6528;BME280;64597;42.664;23.256;2024-03-06T07:44:26;94463.81;;;14.68;45.02
6528;BME280;64597;42.664;23.256;2024-03-06T07:46:51;94464.09;;;14.61;45.30
6528;BME280;64597;42.664;23.256;2024-03-06T07:49:18;94463.25;;;14.51;45.83
6528;BME280;64597;42.664;23.256;2024-03-06T07:51:44;94444.19;;;14.59;46.18
6528;BME280;64597;42.664;23.256;2024-03-06T07:54:09;94454.31;;;14.82;45.97
6528;BME280;64597;42.664;23.256;2024-03-06T07:56:35;94460.72;;;15.06;45.36
6528;BME280;64597;42.664;23.256;2024-03-06T07:59:01;94456.72;;;15.09;45.33
6528;BME280;64597;42.664;23.256;2024-03-06T08:01:27;94453.81;;;15.25;45.21
6528;BME280;64597;42.664;23.256;2024-03-06T08:03:54;94473.00;;;15.47;44.51
6528;BME280;64597;42.664;23.256;2024-03-06T08:06:20;94470.88;;;15.59;43.90
6528;BME280;64597;42.664;23.256;2024-03-06T08:08:45;94465.53;;;15.70;43.97
6528;BME280;64597;42.664;23.256;2024-03-06T08:11:11;94472.41;;;15.81;43.98
6528;BME280;64597;42.664;23.256;2024-03-06T08:13:37;94466.28;;;16.00;43.58
6528;BME280;64597;42.664;23.256;2024-03-06T08:16:04;94469.69;;;16.16;43.30
6528;BME280;64597;42.664;23.256;2024-03-06T08:18:30;94466.44;;;16.34;43.49
6528;BME280;64597;42.664;23.256;2024-03-06T08:20:56;94468.50;;;16.52;42.64
6528;BME280;64597;42.664;23.256;2024-03-06T08:23:21;94453.34;;;16.53;42.20
6528;BME280;64597;42.664;23.256;2024-03-06T08:25:47;94468.06;;;16.89;41.40
6528;BME280;64597;42.664;23.256;2024-03-06T08:28:12;94467.44;;;17.07;41.01
6528;BME280;64597;42.664;23.256;2024-03-06T08:30:37;94468.41;;;17.21;39.98
6528;BME280;64597;42.664;23.256;2024-03-06T08:33:03;94456.06;;;17.30;40.60
6528;BME280;64597;42.664;23.256;2024-03-06T08:35:29;94462.56;;;17.58;39.08
6528;BME280;64597;42.664;23.256;2024-03-06T08:37:55;94454.47;;;17.68;38.53
6528;BME280;64597;42.664;23.256;2024-03-06T08:40:20;94461.13;;;17.94;39.26
6528;BME280;64597;42.664;23.256;2024-03-06T08:42:47;94456.69;;;18.13;38.96
6528;BME280;64597;42.664;23.256;2024-03-06T08:45:13;94463.94;;;18.31;38.85
6528;BME280;64597;42.664;23.256;2024-03-06T08:47:42;94454.50;;;18.62;38.07
6528;BME280;64597;42.664;23.256;2024-03-06T08:50:09;94457.00;;;18.77;37.89
6528;BME280;64597;42.664;23.256;2024-03-06T08:52:36;94434.81;;;18.58;37.49
6528;BME280;64597;42.664;23.256;2024-03-06T08:55:01;94454.91;;;18.93;36.93
6528;BME280;64597;42.664;23.256;2024-03-06T08:57:29;94458.75;;;19.06;36.75
6528;BME280;64597;42.664;23.256;2024-03-06T08:59:56;94459.03;;;19.23;36.73
6528;BME280;64597;42.664;23.256;2024-03-06T09:02:22;94458.19;;;19.46;35.78
6528;BME280;64597;42.664;23.256;2024-03-06T09:04:48;94445.88;;;19.45;35.12
6528;BME280;64597;42.664;23.256;2024-03-06T09:07:14;94465.16;;;19.60;35.80
6528;BME280;64597;42.664;23.256;2024-03-06T09:09:39;94455.88;;;19.71;35.52
6528;BME280;64597;42.664;23.256;2024-03-06T09:12:09;94337.28;;;19.30;35.64
6528;BME280;64597;42.664;23.256;2024-03-06T09:14:39;94457.75;;;20.03;34.18
6528;BME280;64597;42.664;23.256;2024-03-06T09:17:05;94447.22;;;20.07;34.47
6528;BME280;64597;42.664;23.256;2024-03-06T09:19:31;94453.66;;;20.38;33.76
6528;BME280;64597;42.664;23.256;2024-03-06T09:21:58;94451.25;;;20.36;33.60
6528;BME280;64597;42.664;23.256;2024-03-06T09:24:24;94458.66;;;20.26;34.00
6528;BME280;64597;42.664;23.256;2024-03-06T09:26:50;94458.50;;;19.90;34.17
6528;BME280;64597;42.664;23.256;2024-03-06T09:29:16;94454.09;;;19.30;34.86
6528;BME280;64597;42.664;23.256;2024-03-06T09:31:47;94464.44;;;19.18;35.51
6528;BME280;64597;42.664;23.256;2024-03-06T09:34:41;94451.22;;;18.70;36.01
6528;BME280;64597;42.664;23.256;2024-03-06T09:37:45;94458.84;;;18.58;36.51
6528;BME280;64597;42.664;23.256;2024-03-06T09:40:30;94457.03;;;18.54;36.60
6528;BME280;64597;42.664;23.256;2024-03-06T09:43:05;94454.84;;;18.32;36.75
6528;BME280;64597;42.664;23.256;2024-03-06T09:45:47;94454.28;;;18.11;37.18
6528;BME280;64597;42.664;23.256;2024-03-06T09:48:32;94462.91;;;18.03;37.09
6528;BME280;64597;42.664;23.256;2024-03-06T09:51:17;94459.41;;;17.79;37.47
6528;BME280;64597;42.664;23.256;2024-03-06T09:53:54;94455.50;;;17.72;38.03
6528;BME280;64597;42.664;23.256;2024-03-06T10:01:57;94438.34;;;17.44;38.05
6528;BME280;64597;42.664;23.256;2024-03-06T10:04:32;94441.53;;;17.46;38.48
6528;BME280;64597;42.664;23.256;2024-03-06T10:07:00;94445.13;;;17.31;38.09
6528;BME280;64597;42.664;23.256;2024-03-06T10:09:40;94431.13;;;17.16;38.27
6528;BME280;64597;42.664;23.256;2024-03-06T10:12:27;94432.47;;;17.13;38.49
6528;BME280;64597;42.664;23.256;2024-03-06T10:14:56;94430.16;;;17.36;38.19
6528;BME280;64597;42.664;23.256;2024-03-06T10:17:23;94435.72;;;17.73;37.96
6528;BME280;64597;42.664;23.256;2024-03-06T10:19:49;94421.63;;;17.96;37.03
6528;BME280;64597;42.664;23.256;2024-03-06T10:22:19;94424.94;;;18.11;36.58
6528;BME280;64597;42.664;23.256;2024-03-06T10:25:06;94404.94;;;18.33;36.94
6528;BME280;64597;42.664;23.256;2024-03-06T10:27:45;94417.34;;;18.47;36.15
6528;BME280;64597;42.664;23.256;2024-03-06T10:30:15;94421.19;;;18.60;35.75
6528;BME280;64597;42.664;23.256;2024-03-06T10:32:51;94421.22;;;18.55;35.50
6528;BME280;64597;42.664;23.256;2024-03-06T10:35:41;94414.66;;;18.47;35.35
6528;BME280;64597;42.664;23.256;2024-03-06T10:38:10;94408.09;;;18.58;35.28
6528;BME280;64597;42.664;23.256;2024-03-06T10:40:41;94403.78;;;18.62;34.50
6528;BME280;64597;42.664;23.256;2024-03-06T10:43:08;94397.66;;;18.80;34.58
6528;BME280;64597;42.664;23.256;2024-03-06T10:45:50;94396.56;;;19.00;34.47
6528;BME280;64597;42.664;23.256;2024-03-06T10:48:17;94394.03;;;19.09;34.82
6528;BME280;64597;42.664;23.256;2024-03-06T10:50:44;94381.75;;;19.08;32.65
6528;BME280;64597;42.664;23.256;2024-03-06T10:53:15;94380.97;;;19.07;32.79
6528;BME280;64597;42.664;23.256;2024-03-06T10:55:44;94382.91;;;19.02;32.40
6528;BME280;64597;42.664;23.256;2024-03-06T10:58:11;94363.34;;;19.06;32.75
6528;BME280;64597;42.664;23.256;2024-03-06T11:00:41;94375.50;;;19.31;32.53
6528;BME280;64597;42.664;23.256;2024-03-06T11:03:08;94372.50;;;19.19;31.72
6528;BME280;64597;42.664;23.256;2024-03-06T11:05:36;94363.97;;;19.17;32.11
6528;BME280;64597;42.664;23.256;2024-03-06T11:08:09;94363.13;;;19.03;32.06
6528;BME280;64597;42.664;23.256;2024-03-06T11:10:37;94356.25;;;19.15;32.19
6528;BME280;64597;42.664;23.256;2024-03-06T11:13:08;94352.09;;;19.23;32.12
6528;BME280;64597;42.664;23.256;2024-03-06T11:15:34;94348.63;;;19.41;31.45
6528;BME280;64597;42.664;23.256;2024-03-06T11:23:32;94340.91;;;19.21;30.62
6528;BME280;64597;42.664;23.256;2024-03-06T11:26:05;94330.78;;;18.85;31.18
6528;BME280;64597;42.664;23.256;2024-03-06T11:28:38;94342.22;;;18.72;31.24
6528;BME280;64597;42.664;23.256;2024-03-06T11:31:10;94323.94;;;18.79;31.77
6528;BME280;64597;42.664;23.256;2024-03-06T11:33:45;94319.94;;;18.96;32.22
6528;BME280;64597;42.664;23.256;2024-03-06T11:38:53;94307.66;;;19.27;32.21
6528;BME280;64597;42.664;23.256;2024-03-06T11:41:22;94319.41;;;19.44;31.89
6528;BME280;64597;42.664;23.256;2024-03-06T11:43:49;94311.50;;;19.39;31.50
6528;BME280;64597;42.664;23.256;2024-03-06T11:49:19;94297.63;;;19.37;31.57
6528;BME280;64597;42.664;23.256;2024-03-06T11:51:47;94297.22;;;19.12;31.86
6528;BME280;64597;42.664;23.256;2024-03-06T11:54:13;94309.44;;;18.99;31.39
6528;BME280;64597;42.664;23.256;2024-03-06T11:56:40;94303.28;;;18.66;31.94
6528;BME280;64597;42.664;23.256;2024-03-06T11:59:05;94309.66;;;18.70;32.32
6528;BME280;64597;42.664;23.256;2024-03-06T12:01:35;94300.75;;;18.75;31.89
6528;BME280;64597;42.664;23.256;2024-03-06T12:04:02;94297.81;;;18.76;31.32
6528;BME280;64597;42.664;23.256;2024-03-06T12:06:28;94293.78;;;18.60;31.02
6528;BME280;64597;42.664;23.256;2024-03-06T12:08:54;94276.69;;;18.61;31.93
6528;BME280;64597;42.664;23.256;2024-03-06T12:11:19;94297.81;;;18.76;30.80
6528;BME280;64597;42.664;23.256;2024-03-06T12:13:48;94288.72;;;18.59;30.66
6528;BME280;64597;42.664;23.256;2024-03-06T12:16:14;94289.03;;;18.57;30.14
6528;BME280;64597;42.664;23.256;2024-03-06T12:18:39;94281.28;;;18.37;29.82
6528;BME280;64597;42.664;23.256;2024-03-06T12:21:05;94293.53;;;18.38;30.14
6528;BME280;64597;42.664;23.256;2024-03-06T12:23:30;94280.34;;;18.28;29.43
6528;BME280;64597;42.664;23.256;2024-03-06T12:26:06;94276.66;;;18.24;29.69
6528;BME280;64597;42.664;23.256;2024-03-06T12:28:34;94283.25;;;18.13;29.66
6528;BME280;64597;42.664;23.256;2024-03-06T12:31:05;94278.53;;;18.05;30.31
6528;BME280;64597;42.664;23.256;2024-03-06T12:33:32;94274.06;;;18.00;30.31
6528;BME280;64597;42.664;23.256;2024-03-06T12:36:08;94273.41;;;18.08;30.94
6528;BME280;64597;42.664;23.256;2024-03-06T12:38:37;94271.47;;;18.14;30.71
6528;BME280;64597;42.664;23.256;2024-03-06T12:41:03;94271.13;;;18.21;30.60
6528;BME280;64597;42.664;23.256;2024-03-06T12:43:29;94266.78;;;18.25;30.25
6528;BME280;64597;42.664;23.256;2024-03-06T12:45:55;94236.78;;;18.14;30.29
6528;BME280;64597;42.664;23.256;2024-03-06T12:48:23;94270.97;;;18.31;30.57
6528;BME280;64597;42.664;23.256;2024-03-06T12:50:48;94278.31;;;18.39;30.36
6528;BME280;64597;42.664;23.256;2024-03-06T12:53:18;94271.63;;;18.41;30.11
6528;BME280;64597;42.664;23.256;2024-03-06T12:55:44;94246.88;;;18.17;30.34
6528;BME280;64597;42.664;23.256;2024-03-06T12:58:11;94271.19;;;18.34;33.24
6528;BME280;64597;42.664;23.256;2024-03-06T13:00:37;94273.06;;;18.15;34.48
6528;BME280;64597;42.664;23.256;2024-03-06T13:03:03;94274.91;;;17.96;35.39
6528;BME280;64597;42.664;23.256;2024-03-06T13:05:28;94278.34;;;17.78;36.02
6528;BME280;64597;42.664;23.256;2024-03-06T13:07:54;94285.38;;;17.69;36.14
6528;BME280;64597;42.664;23.256;2024-03-06T13:10:19;94294.00;;;17.61;36.56
6528;BME280;64597;42.664;23.256;2024-03-06T13:12:47;94288.69;;;17.32;36.52
6528;BME280;64597;42.664;23.256;2024-03-06T13:15:12;94291.53;;;16.88;36.88
6528;BME280;64597;42.664;23.256;2024-03-06T13:17:38;94297.56;;;16.65;37.35
6528;BME280;64597;42.664;23.256;2024-03-06T13:20:05;94286.56;;;16.33;38.27
6528;BME280;64597;42.664;23.256;2024-03-06T13:22:34;94297.75;;;16.35;38.31
6528;BME280;64597;42.664;23.256;2024-03-06T13:25:00;94294.56;;;16.33;38.36
6528;BME280;64597;42.664;23.256;2024-03-06T13:27:25;94291.38;;;16.31;38.38
6528;BME280;64597;42.664;23.256;2024-03-06T13:29:51;94288.81;;;16.16;38.52
6528;BME280;64597;42.664;23.256;2024-03-06T13:32:16;94237.38;;;15.87;38.86
6528;BME280;64597;42.664;23.256;2024-03-06T13:34:42;94294.69;;;16.13;38.26
6528;BME280;64597;42.664;23.256;2024-03-06T13:37:09;94292.63;;;15.95;38.54
6528;BME280;64597;42.664;23.256;2024-03-06T13:39:35;94299.03;;;15.89;38.82
6528;BME280;64597;42.664;23.256;2024-03-06T13:42:01;94282.38;;;15.78;39.16
6528;BME280;64597;42.664;23.256;2024-03-06T13:44:26;94292.16;;;15.88;39.22
6528;BME280;64597;42.664;23.256;2024-03-06T13:46:52;94297.50;;;15.78;39.41
6528;BME280;64597;42.664;23.256;2024-03-06T13:49:39;94300.75;;;15.70;39.18
6528;BME280;64597;42.664;23.256;2024-03-06T13:52:06;94289.31;;;15.64;39.25
6528;BME280;64597;42.664;23.256;2024-03-06T13:54:33;94290.69;;;15.56;39.42
6528;BME280;64597;42.664;23.256;2024-03-06T13:56:58;94293.34;;;15.61;39.32
6528;BME280;64597;42.664;23.256;2024-03-06T13:59:32;94290.63;;;15.66;39.21
6528;BME280;64597;42.664;23.256;2024-03-06T14:01:58;94293.84;;;15.63;39.38
6528;BME280;64597;42.664;23.256;2024-03-06T14:04:24;94282.19;;;15.59;39.55
6528;BME280;64597;42.664;23.256;2024-03-06T14:06:50;94286.13;;;15.62;39.52
6528;BME280;64597;42.664;23.256;2024-03-06T14:09:15;94293.06;;;15.58;39.59
6528;BME280;64597;42.664;23.256;2024-03-06T14:11:41;94297.59;;;15.52;39.55
6528;BME280;64597;42.664;23.256;2024-03-06T14:14:06;94292.84;;;15.44;39.76
6528;BME280;64597;42.664;23.256;2024-03-06T14:16:34;94292.84;;;15.44;39.83
6528;BME280;64597;42.664;23.256;2024-03-06T14:18:59;94298.44;;;15.28;40.06
6528;BME280;64597;42.664;23.256;2024-03-06T14:21:25;94303.53;;;15.04;40.83
6528;BME280;64597;42.664;23.256;2024-03-06T14:23:50;94300.09;;;14.38;42.43
6528;BME280;64597;42.664;23.256;2024-03-06T14:26:15;94306.63;;;14.05;44.30
6528;BME280;64597;42.664;23.256;2024-03-06T14:28:41;94311.53;;;13.72;45.50
6528;BME280;64597;42.664;23.256;2024-03-06T14:31:07;94312.22;;;13.42;48.12
6528;BME280;64597;42.664;23.256;2024-03-06T14:33:33;94317.59;;;13.10;50.43
6528;BME280;64597;42.664;23.256;2024-03-06T14:35:58;94314.00;;;12.90;53.91
6528;BME280;64597;42.664;23.256;2024-03-06T14:38:24;94318.19;;;12.86;55.72
6528;BME280;64597;42.664;23.256;2024-03-06T14:40:49;94314.66;;;12.38;55.56